Quantico MCAF /Turner field
KNYG : now visible

Airfield :











YOU CAN JOIN US ON...

 
LOGIN :

Register | Disclaimer

   EN    FR    IT 

 









Legend :    VFR   Marginal VFR   IFR   Intensive IFR   Very Intensive IFR
Visi :
Ceiling :
>= 8 km
>= 3000ft
5 to 8 km
1000 to 3000 ft
1500m to 5 km
500 to 1000 ft
800 to 1500m
200 to 500 ft
< 800m
< 200 ft
Symbols :   Thunderstorms  Fog  Heavy snow  Heavy precipitations  Wind > 20 kt






- Airport Elevation : 10 ft


KNYG - Quantico MCAF /Turner field

CURRENT METAR :
  • 240456Z AUTO 16014KT 10SM CLR 17/09 A2989 RMK AO2 SLP124 T01670089 402170044 $

EXPIRED METARs :
  • 240356Z AUTO 16014KT 10SM CLR 17/09 A2991 RMK AO2 SLP130 T01670089 $
  • 240256Z AUTO 15011KT 10SM CLR 17/09 A2994 RMK AO2 SLP141 T01720089 50003 $
  • 240156Z AUTO 18010KT 10SM CLR 18/11 A2996 RMK AO2 SLP145 T01780111 $
  • 240056Z AUTO 18009KT 10SM CLR 18/11 A2994 RMK AO2 SLP140 T01830111 $

TAF TAF KNYG
Valid from the 23 at 21:00 until the 24 at 21:00 UTC


2321/2421 17015KT 9999 SCT180 QNH3000INS
BECMG 2402/0404 20009KT SCT060 BKN090 QNH2990INS
FM240700 23009KT 8000 -SHRA BR SCT080 BKN100 QNH2990INS
BECMG 2412/2414 26010G20KT 9999 NSW FEW040 SCT090 QNH2992INS
TEMPO 2415/2421 30010G20KT 9999 BKN050 LAST NO AMDS AFTER 2321 NEXT 2409 AUTOMATED SENSOR METWATCH 2323 TIL 2412 T15/2408Z T24/2418Z
KZDC FIR / North America



MET'MAP, your aeronautical weather chart ! - Copyright ORBIFLY December 2007 - Disclaimer

ORBIFLY MET'MAP TEAM :

Programming & Development : Alexandra Zaïnal
Original concept : Baudouin d'Aumeries
Technical & hardware support : Manuel Goepfert
Assistance : Marc-Olivier Méhu




SOURCES & CREDITS :

   NOAA       Earth
Advisory